createdAt,value
2017-12-08T00:00:40.043Z,0
2017-12-08T00:01:49.776Z,0
2017-12-08T00:02:59.561Z,0
2017-12-08T00:04:09.543Z,0
2017-12-08T00:05:19.316Z,0
2017-12-08T00:06:29.331Z,0
2017-12-08T00:07:39.097Z,0
2017-12-08T00:08:48.848Z,0
2017-12-08T00:09:58.580Z,0
2017-12-08T00:11:08.321Z,0
2017-12-08T00:12:18.311Z,0
2017-12-08T00:13:28.218Z,0
2017-12-08T00:14:38.368Z,0
2017-12-08T00:15:48.621Z,0
2017-12-08T00:16:58.421Z,0
2017-12-08T00:18:07.895Z,0
2017-12-08T00:19:17.765Z,0
2017-12-08T00:20:28.016Z,0
2017-12-08T00:21:39.598Z,0
2017-12-08T00:22:49.457Z,0
2017-12-08T00:23:59.747Z,0
2017-12-08T00:25:10.990Z,0
2017-12-08T00:26:21.785Z,0
2017-12-08T00:27:32.102Z,0
2017-12-08T00:28:42.101Z,0
2017-12-08T00:29:52.530Z,0
2017-12-08T00:31:02.564Z,0
2017-12-08T00:32:12.700Z,0
2017-12-08T00:33:22.844Z,0
2017-12-08T00:34:33.825Z,0
2017-12-08T00:35:43.552Z,0
2017-12-08T00:36:53.661Z,0
2017-12-08T00:38:03.825Z,0
2017-12-08T00:39:13.980Z,0
2017-12-08T00:40:24.515Z,0
2017-12-08T00:41:34.308Z,0
2017-12-08T00:42:44.360Z,0
2017-12-08T00:43:54.146Z,0
2017-12-08T00:45:03.985Z,0
2017-12-08T00:46:14.039Z,0
2017-12-08T00:47:24.111Z,0
2017-12-08T00:48:33.915Z,0
2017-12-08T00:49:43.716Z,0
2017-12-08T00:50:52.988Z,0
2017-12-08T00:52:02.515Z,0
2017-12-08T00:53:12.115Z,0
2017-12-08T00:54:22.158Z,0
2017-12-08T00:55:32.204Z,0
2017-12-08T00:56:42.311Z,0
2017-12-08T00:57:52.371Z,0
2017-12-08T00:59:02.422Z,0
2017-12-08T01:00:12.231Z,0
2017-12-08T01:01:22.008Z,0
2017-12-08T01:02:31.600Z,0
2017-12-08T01:03:41.647Z,0
2017-12-08T01:04:51.443Z,0
2017-12-08T01:06:00.974Z,0
2017-12-08T01:07:10.517Z,0
2017-12-08T01:08:20.589Z,0
2017-12-08T01:09:30.640Z,0
2017-12-08T01:10:40.496Z,0
2017-12-08T01:11:50.545Z,0
2017-12-08T01:13:00.597Z,0
2017-12-08T01:14:10.634Z,0
2017-12-08T01:15:20.689Z,0
2017-12-08T01:16:30.740Z,0
2017-12-08T01:17:40.526Z,0
2017-12-08T01:18:50.319Z,0
2017-12-08T01:20:00.424Z,0
2017-12-08T01:21:10.211Z,0
2017-12-08T01:22:20.003Z,0
2017-12-08T01:23:29.792Z,0
2017-12-08T01:24:39.593Z,0
2017-12-08T01:25:49.452Z,0
2017-12-08T01:26:58.714Z,0
2017-12-08T01:28:08.509Z,0
2017-12-08T01:29:18.560Z,0
2017-12-08T01:30:29.135Z,0
2017-12-08T01:31:39.238Z,0
2017-12-08T01:32:49.022Z,0
2017-12-08T01:33:59.076Z,0
2017-12-08T01:35:09.141Z,0
2017-12-08T01:36:19.187Z,0
2017-12-08T01:37:29.295Z,0
2017-12-08T01:38:39.375Z,0
2017-12-08T01:39:49.171Z,0
2017-12-08T01:40:59.223Z,0
2017-12-08T01:42:09.288Z,0
2017-12-08T01:43:19.075Z,0
2017-12-08T01:44:28.888Z,0
2017-12-08T01:45:38.735Z,0
2017-12-08T01:46:48.779Z,0
2017-12-08T01:47:58.851Z,0
2017-12-08T01:49:08.636Z,0
2017-12-08T01:50:18.199Z,0
2017-12-08T01:51:28.266Z,0
2017-12-08T01:52:38.311Z,0
2017-12-08T01:53:48.363Z,0
2017-12-08T01:54:58.569Z,0
2017-12-08T01:56:08.628Z,0
2017-12-08T01:57:18.401Z,0
2017-12-08T01:58:27.936Z,0
2017-12-08T01:59:37.992Z,0
2017-12-08T02:00:47.772Z,0
2017-12-08T02:01:57.828Z,0
2017-12-08T02:03:08.490Z,0
2017-12-08T02:04:18.546Z,0
2017-12-08T02:05:28.617Z,0
2017-12-08T02:06:38.731Z,0
2017-12-08T02:07:48.537Z,0
2017-12-08T02:08:58.331Z,0
2017-12-08T02:10:08.118Z,0
2017-12-08T02:11:18.188Z,0
2017-12-08T02:12:28.236Z,0
2017-12-08T02:13:38.287Z,0
2017-12-08T02:14:48.340Z,0
2017-12-08T02:15:58.385Z,0
2017-12-08T02:17:08.174Z,0
2017-12-08T02:18:18.004Z,0
2017-12-08T02:19:28.075Z,0
2017-12-08T02:20:38.078Z,0
2017-12-08T02:21:48.126Z,0
2017-12-08T02:22:58.201Z,0
2017-12-08T02:24:08.052Z,0
2017-12-08T02:25:17.855Z,0
2017-12-08T02:26:27.913Z,0
2017-12-08T02:27:37.978Z,0
2017-12-08T02:28:47.766Z,0
2017-12-08T02:29:57.877Z,0
2017-12-08T02:31:07.670Z,0
2017-12-08T02:32:17.723Z,0
2017-12-08T02:33:27.259Z,0
2017-12-08T02:34:37.044Z,0
2017-12-08T02:35:47.098Z,0
2017-12-08T02:36:56.898Z,0
2017-12-08T02:38:06.985Z,0
2017-12-08T02:39:16.516Z,0
2017-12-08T02:40:26.556Z,0
2017-12-08T02:41:36.339Z,0
2017-12-08T02:42:46.132Z,0
2017-12-08T02:43:55.937Z,0
2017-12-08T02:45:06.009Z,0
2017-12-08T02:46:15.549Z,0
2017-12-08T02:47:25.638Z,0
2017-12-08T02:48:35.160Z,0
2017-12-08T02:49:44.942Z,0
2017-12-08T02:50:54.997Z,0
2017-12-08T02:52:04.775Z,0
2017-12-08T02:53:14.638Z,0
2017-12-08T02:54:24.426Z,0
2017-12-08T02:55:34.482Z,0
2017-12-08T02:56:44.534Z,0
2017-12-08T02:57:54.326Z,0
2017-12-08T02:59:04.385Z,0
2017-12-08T03:00:14.172Z,0
2017-12-08T03:01:23.970Z,0
2017-12-08T03:02:34.015Z,0
2017-12-08T03:34:02.302Z,0
2017-12-08T03:35:12.335Z,0
2017-12-08T03:36:22.132Z,0
2017-12-08T03:37:32.182Z,0
2017-12-08T03:38:41.966Z,0
2017-12-08T03:39:52.061Z,0
2017-12-08T03:41:02.120Z,0
2017-12-08T03:42:12.156Z,0
2017-12-08T03:43:21.942Z,0
2017-12-08T03:44:31.750Z,0
2017-12-08T03:45:41.845Z,0
2017-12-08T03:46:51.906Z,0
2017-12-08T03:48:01.444Z,0
2017-12-08T03:49:11.245Z,0
2017-12-08T03:50:20.784Z,0
2017-12-08T03:51:31.034Z,0
2017-12-08T03:52:41.153Z,0
2017-12-08T03:53:51.201Z,0
2017-12-08T03:55:01.259Z,0
2017-12-08T03:56:11.044Z,0
2017-12-08T03:57:20.875Z,0
2017-12-08T03:58:30.930Z,0
2017-12-08T03:59:40.466Z,0
2017-12-08T04:00:50.529Z,0
2017-12-08T04:02:00.570Z,0
2017-12-08T04:03:10.406Z,0
2017-12-08T04:04:20.196Z,0
2017-12-08T04:05:30.044Z,0
2017-12-08T04:06:39.837Z,0
2017-12-08T04:07:49.897Z,0
2017-12-08T04:08:59.737Z,0
2017-12-08T04:10:09.518Z,0
2017-12-08T04:11:19.049Z,0
2017-12-08T04:12:29.111Z,0
2017-12-08T04:13:39.217Z,0
2017-12-08T04:14:48.808Z,0
2017-12-08T04:15:58.592Z,0
2017-12-08T04:17:08.638Z,0
2017-12-08T04:18:18.674Z,0
2017-12-08T04:19:28.728Z,0
2017-12-08T04:20:38.248Z,0
2017-12-08T04:21:47.509Z,0
2017-12-08T04:22:57.553Z,0
2017-12-08T04:24:07.607Z,0
2017-12-08T04:25:17.391Z,0
2017-12-08T04:26:27.448Z,0
2017-12-08T04:27:37.242Z,0
2017-12-08T04:28:47.076Z,0
2017-12-08T04:29:57.137Z,0
2017-12-08T04:31:07.193Z,0
2017-12-08T04:32:16.710Z,0
2017-12-08T04:33:26.757Z,0
2017-12-08T04:34:36.549Z,0
2017-12-08T04:35:46.347Z,0
2017-12-08T04:36:56.142Z,0
2017-12-08T04:38:06.198Z,0
2017-12-08T04:39:16.230Z,0
2017-12-08T04:40:26.287Z,0
2017-12-08T04:41:35.809Z,0
2017-12-08T04:42:45.865Z,0
2017-12-08T04:43:55.964Z,0
2017-12-08T04:45:06.026Z,0
2017-12-08T04:46:16.072Z,0
2017-12-08T04:47:25.866Z,0
2017-12-08T04:48:35.926Z,0
2017-12-08T04:49:45.726Z,0
2017-12-08T04:50:55.770Z,0
2017-12-08T04:52:05.551Z,0
2017-12-08T04:53:15.605Z,0
2017-12-08T04:54:25.648Z,0
2017-12-08T04:55:35.692Z,0
2017-12-08T04:56:45.220Z,0
2017-12-08T04:57:55.055Z,0
2017-12-08T04:59:05.103Z,0
2017-12-08T05:00:14.893Z,0
2017-12-08T05:01:24.952Z,0
2017-12-08T05:02:35.025Z,0
2017-12-08T05:03:44.816Z,0
2017-12-08T05:04:54.599Z,0
2017-12-08T05:06:04.645Z,0
2017-12-08T05:07:14.433Z,0
2017-12-08T05:08:24.497Z,0
2017-12-08T05:09:34.276Z,0
2017-12-08T05:10:44.202Z,0
2017-12-08T05:11:53.996Z,0
2017-12-08T05:13:04.895Z,0
2017-12-08T05:14:14.964Z,0
2017-12-08T05:15:24.742Z,0
2017-12-08T05:16:34.792Z,0
2017-12-08T05:17:44.838Z,0
2017-12-08T05:18:54.896Z,0
2017-12-08T05:20:04.951Z,0
2017-12-08T05:21:14.482Z,0
2017-12-08T05:22:24.275Z,0
2017-12-08T05:23:34.057Z,0
2017-12-08T05:24:43.841Z,0
2017-12-08T05:25:53.874Z,0
2017-12-08T05:27:03.404Z,0
2017-12-08T05:28:12.659Z,0
2017-12-08T05:29:22.708Z,0
2017-12-08T05:30:32.548Z,0
2017-12-08T05:31:42.649Z,0
2017-12-08T05:32:52.184Z,0
2017-12-08T05:34:02.236Z,0
2017-12-08T05:35:12.360Z,0
2017-12-08T05:36:22.406Z,0
2017-12-08T05:37:31.939Z,0
2017-12-08T05:38:42.066Z,0
2017-12-08T05:39:51.857Z,0
2017-12-08T05:41:01.639Z,0
2017-12-08T05:42:11.825Z,0
2017-12-08T05:43:21.866Z,0
2017-12-08T05:44:31.716Z,0
2017-12-08T05:45:41.766Z,0
2017-12-08T05:46:51.029Z,0
2017-12-08T05:48:00.824Z,0
2017-12-08T05:49:10.875Z,0
2017-12-08T05:50:20.933Z,0
2017-12-08T05:51:30.734Z,0
2017-12-08T05:52:40.781Z,0
2017-12-08T05:53:50.873Z,0
2017-12-08T05:55:00.664Z,0
2017-12-08T05:56:10.716Z,0
2017-12-08T05:57:20.503Z,0
2017-12-08T05:58:30.291Z,0
2017-12-08T05:59:40.494Z,0
2017-12-08T06:00:50.293Z,0
2017-12-08T06:02:00.355Z,0
2017-12-08T06:03:10.138Z,4
2017-12-08T06:04:19.919Z,4
2017-12-08T06:05:29.750Z,0
2017-12-08T06:06:39.806Z,0
2017-12-08T06:07:49.601Z,0
2017-12-08T06:08:59.661Z,4
2017-12-08T06:10:09.444Z,0
2017-12-08T06:11:19.254Z,4
2017-12-08T06:12:29.304Z,4
2017-12-08T06:13:39.092Z,4
2017-12-08T06:14:48.870Z,4
2017-12-08T06:15:58.138Z,4
2017-12-08T06:17:08.242Z,4
2017-12-08T06:18:18.021Z,8
2017-12-08T06:19:28.516Z,12
2017-12-08T06:20:38.572Z,8
2017-12-08T06:21:48.103Z,16
2017-12-08T06:22:57.919Z,12
2017-12-08T06:24:07.720Z,16
2017-12-08T06:25:17.825Z,16
2017-12-08T06:26:27.905Z,24
2017-12-08T06:27:37.180Z,24
2017-12-08T06:28:47.290Z,28
2017-12-08T06:29:57.343Z,32
2017-12-08T06:31:07.135Z,40
2017-12-08T06:32:16.941Z,48
2017-12-08T06:33:26.992Z,56
2017-12-08T06:34:36.830Z,56
2017-12-08T06:35:46.609Z,56
2017-12-08T06:36:56.642Z,64
2017-12-08T06:38:06.685Z,72
2017-12-08T06:39:16.751Z,76
2017-12-08T06:40:26.538Z,80
2017-12-08T06:41:36.604Z,88
2017-12-08T06:42:46.407Z,100
2017-12-08T06:43:55.942Z,108
2017-12-08T06:45:05.999Z,120
2017-12-08T06:46:15.794Z,132
2017-12-08T06:47:25.582Z,136
2017-12-08T06:48:35.448Z,148
2017-12-08T06:49:45.485Z,152
2017-12-08T06:50:55.528Z,156
2017-12-08T06:52:05.107Z,164
2017-12-08T06:53:15.162Z,168
2017-12-08T06:54:25.209Z,164
2017-12-08T06:55:34.992Z,172
2017-12-08T06:56:44.778Z,176
2017-12-08T06:57:54.898Z,180
2017-12-08T06:59:05.740Z,188
2017-12-08T07:00:15.793Z,204
2017-12-08T07:01:25.575Z,212
2017-12-08T07:02:35.377Z,220
2017-12-08T07:03:45.161Z,228
2017-12-08T07:04:54.956Z,240
2017-12-08T07:06:04.488Z,264
2017-12-08T07:07:14.269Z,288
2017-12-08T07:08:24.321Z,316
2017-12-08T07:09:34.118Z,316
2017-12-08T07:10:44.164Z,328
2017-12-08T07:11:54.221Z,332
2017-12-08T07:13:04.278Z,336
2017-12-08T07:14:14.331Z,332
2017-12-08T07:15:24.116Z,328
2017-12-08T07:16:33.893Z,336
2017-12-08T07:17:43.949Z,348
2017-12-08T07:18:54.002Z,368
2017-12-08T07:20:04.051Z,384
2017-12-08T07:21:13.638Z,432
2017-12-08T07:22:23.414Z,476
2017-12-08T07:23:33.558Z,500
2017-12-08T07:24:43.088Z,528
2017-12-08T07:25:53.147Z,588
2017-12-08T07:27:03.249Z,660
2017-12-08T07:28:13.288Z,752
2017-12-08T07:29:22.813Z,840
2017-12-08T07:30:34.303Z,948
2017-12-08T07:31:44.096Z,940
2017-12-08T07:32:54.216Z,884
2017-12-08T07:34:03.742Z,856
2017-12-08T07:35:13.535Z,872
2017-12-08T07:36:23.589Z,868
2017-12-08T07:37:33.393Z,836
2017-12-08T07:38:43.491Z,756
2017-12-08T07:39:53.294Z,656
2017-12-08T07:41:03.343Z,604
2017-12-08T07:42:13.428Z,572
2017-12-08T07:43:23.492Z,560
2017-12-08T07:44:33.619Z,552
2017-12-08T07:45:43.399Z,524
2017-12-08T07:46:53.244Z,484
2017-12-08T07:48:03.084Z,460
2017-12-08T07:49:13.141Z,464
2017-12-08T07:50:22.670Z,480
2017-12-08T07:51:32.244Z,524
2017-12-08T07:52:42.049Z,600
2017-12-08T07:53:51.865Z,624
2017-12-08T07:55:01.661Z,640
2017-12-08T07:56:11.717Z,656
2017-12-08T07:57:21.509Z,676
2017-12-08T07:58:31.607Z,708
2017-12-08T07:59:41.138Z,716
2017-12-08T08:00:51.207Z,700
2017-12-08T08:02:01.256Z,692
2017-12-08T08:03:11.325Z,716
2017-12-08T08:04:21.445Z,776
2017-12-08T08:05:31.242Z,880
2017-12-08T08:06:41.033Z,968
2017-12-08T08:07:50.843Z,1012
2017-12-08T08:09:00.890Z,1040
2017-12-08T08:10:10.433Z,1024
2017-12-08T08:11:20.504Z,1032
2017-12-08T08:12:30.294Z,1096
2017-12-08T08:13:40.919Z,1204
2017-12-08T08:14:50.452Z,1332
2017-12-08T08:16:00.699Z,1320
2017-12-08T08:17:10.761Z,1300
2017-12-08T08:18:20.818Z,1304
2017-12-08T08:19:30.882Z,1336
2017-12-08T08:20:40.416Z,1380
2017-12-08T08:21:50.464Z,1432
2017-12-08T08:23:00.505Z,1488
2017-12-08T08:24:10.554Z,1548
2017-12-08T08:25:20.653Z,1592
2017-12-08T08:26:30.449Z,1564
2017-12-08T08:27:40.511Z,1580
2017-12-08T08:28:50.427Z,1544
2017-12-08T08:30:00.480Z,1564
2017-12-08T08:31:10.018Z,1480
2017-12-08T08:32:19.805Z,1432
2017-12-08T08:33:29.874Z,1448
2017-12-08T08:34:39.665Z,1508
2017-12-08T08:35:49.472Z,1560
2017-12-08T08:36:59.579Z,1648
2017-12-08T08:38:09.615Z,1756
2017-12-08T08:39:19.668Z,1880
2017-12-08T08:40:29.816Z,2020
2017-12-08T08:41:39.593Z,2140
2017-12-08T08:42:49.127Z,2264
2017-12-08T08:43:59.187Z,2272
2017-12-08T08:45:09.248Z,2328
2017-12-08T08:46:19.047Z,2348
2017-12-08T08:47:29.146Z,2360
2017-12-08T08:48:39.205Z,2360
2017-12-08T08:49:50.407Z,2396
2017-12-08T08:51:00.209Z,2356
2017-12-08T08:52:11.807Z,2288
2017-12-08T08:53:22.775Z,2248
2017-12-08T08:54:32.890Z,2284
2017-12-08T08:55:42.702Z,2312
2017-12-08T08:56:52.749Z,2328
2017-12-08T08:58:03.924Z,2372
2017-12-08T08:59:13.729Z,2424
2017-12-08T09:00:24.258Z,2476
2017-12-08T09:01:34.086Z,2460
2017-12-08T09:02:44.144Z,2476
2017-12-08T09:03:53.947Z,2552
2017-12-08T09:05:04.047Z,2716
2017-12-08T09:06:13.853Z,2872
2017-12-08T09:07:23.140Z,3048
2017-12-08T09:08:33.515Z,3192
2017-12-08T09:09:44.496Z,3172
2017-12-08T09:10:54.276Z,3088
2017-12-08T09:12:04.135Z,3140
2017-12-08T09:13:13.932Z,3216
2017-12-08T09:14:23.734Z,3380
2017-12-08T09:15:33.789Z,2984
2017-12-08T09:16:43.855Z,2756
2017-12-08T09:17:53.659Z,2572
2017-12-08T09:19:03.183Z,2504
2017-12-08T09:20:12.464Z,2444
2017-12-08T09:21:22.532Z,2368
2017-12-08T09:22:32.579Z,2352
2017-12-08T09:23:42.677Z,2168
2017-12-08T09:24:52.751Z,2052
2017-12-08T09:26:02.617Z,2108
2017-12-08T09:27:12.416Z,2152
2017-12-08T09:28:22.477Z,2176
2017-12-08T09:29:32.298Z,2172
2017-12-08T09:30:42.400Z,2156
2017-12-08T09:31:51.949Z,2132
2017-12-08T09:33:02.569Z,2048
2017-12-08T09:34:12.408Z,1876
2017-12-08T09:35:23.614Z,1644
2017-12-08T09:36:33.673Z,1552
2017-12-08T09:37:43.741Z,1508
2017-12-08T09:38:53.835Z,1712
2017-12-08T09:40:03.637Z,2020
2017-12-08T09:41:13.740Z,2204
2017-12-08T09:42:23.284Z,2336
2017-12-08T09:43:33.332Z,2456
2017-12-08T09:44:43.379Z,2564
2017-12-08T09:45:53.199Z,2660
2017-12-08T09:47:03.254Z,2820
2017-12-08T09:48:13.316Z,2956
2017-12-08T09:49:23.389Z,3140
2017-12-08T09:50:33.485Z,3124
2017-12-08T09:51:43.279Z,3028
2017-12-08T09:52:53.149Z,2916
2017-12-08T09:54:02.951Z,2836
2017-12-08T09:55:12.753Z,2756
2017-12-08T09:56:22.793Z,2636
2017-12-08T09:57:32.581Z,2540
2017-12-08T09:58:42.371Z,2484
2017-12-08T09:59:51.964Z,2424
2017-12-08T10:01:02.024Z,2336
2017-12-08T10:02:11.878Z,2240
2017-12-08T10:03:21.967Z,2148
2017-12-08T10:04:32.121Z,2076
2017-12-08T10:05:42.183Z,1996
2017-12-08T10:06:52.294Z,1916
2017-12-08T10:08:02.352Z,1832
2017-12-08T10:09:12.395Z,1736
2017-12-08T10:10:22.495Z,1556
2017-12-08T10:11:32.279Z,1316
2017-12-08T10:12:41.942Z,1112
2017-12-08T10:13:52.015Z,908
2017-12-08T10:15:02.076Z,776
2017-12-08T10:16:12.192Z,772
2017-12-08T10:17:22.263Z,904
2017-12-08T10:18:32.489Z,1056
2017-12-08T10:19:42.565Z,1208
2017-12-08T10:20:52.631Z,1272
2017-12-08T10:22:02.446Z,1356
2017-12-08T10:23:12.242Z,1476
2017-12-08T10:24:22.052Z,1540
2017-12-08T10:25:31.852Z,1520
2017-12-08T10:26:41.925Z,1492
2017-12-08T10:27:51.987Z,1628
2017-12-08T10:29:01.804Z,1800
2017-12-08T10:30:11.599Z,1932
2017-12-08T10:31:22.572Z,1992
2017-12-08T10:32:32.632Z,2020
2017-12-08T10:33:41.910Z,1984
2017-12-08T10:34:53.003Z,1904
2017-12-08T10:36:03.119Z,1884
2017-12-08T10:37:13.168Z,1932
2017-12-08T10:38:23.767Z,1964
2017-12-08T10:39:33.814Z,2188
2017-12-08T10:40:45.014Z,1984
2017-12-08T10:41:55.143Z,1836
2017-12-08T10:43:04.945Z,1696
2017-12-08T10:44:14.765Z,1544
2017-12-08T10:45:24.562Z,1532
2017-12-08T10:46:33.821Z,1556
2017-12-08T10:47:43.621Z,1592
2017-12-08T10:48:53.690Z,1584
2017-12-08T10:50:03.753Z,1636
2017-12-08T10:51:13.835Z,1468
2017-12-08T10:52:23.951Z,1284
2017-12-08T10:53:33.540Z,1340
2017-12-08T10:54:43.723Z,1348
2017-12-08T10:55:53.793Z,1280
2017-12-08T10:57:03.603Z,1284
2017-12-08T10:58:13.669Z,1240
2017-12-08T10:59:23.472Z,1352
2017-12-08T11:00:33.544Z,1236
2017-12-08T11:01:43.440Z,1132
2017-12-08T11:02:53.490Z,1088
2017-12-08T11:04:03.280Z,1012
2017-12-08T11:05:13.144Z,1000
2017-12-08T11:06:22.963Z,972
2017-12-08T11:07:33.011Z,928
2017-12-08T11:08:43.065Z,928
2017-12-08T11:09:53.118Z,952
2017-12-08T11:11:03.178Z,940
2017-12-08T11:12:12.716Z,976
2017-12-08T11:13:22.782Z,1020
2017-12-08T11:14:32.832Z,996
2017-12-08T11:15:42.905Z,900
2017-12-08T11:16:52.961Z,796
2017-12-08T11:18:02.763Z,724
2017-12-08T11:19:12.816Z,692
2017-12-08T11:20:22.662Z,668
2017-12-08T11:21:32.445Z,660
2017-12-08T11:22:42.506Z,672
2017-12-08T11:23:53.649Z,692
2017-12-08T11:25:03.726Z,672
2017-12-08T11:26:13.787Z,620
2017-12-08T11:27:23.626Z,592
2017-12-08T11:28:33.750Z,648
2017-12-08T11:29:44.277Z,704
2017-12-08T11:30:54.102Z,732
2017-12-08T11:32:04.163Z,748
2017-12-08T11:33:14.002Z,796
2017-12-08T11:34:23.817Z,880
2017-12-08T11:35:33.968Z,836
2017-12-08T11:36:44.063Z,816
2017-12-08T11:37:54.171Z,856
2017-12-08T11:39:04.291Z,900
2017-12-08T11:40:14.441Z,948
2017-12-08T11:41:24.585Z,924
2017-12-08T11:42:34.442Z,852
2017-12-08T11:43:44.511Z,816
2017-12-08T11:44:54.339Z,824
2017-12-08T11:46:04.406Z,876
2017-12-08T11:47:14.224Z,972
2017-12-08T11:48:24.358Z,1160
2017-12-08T11:49:34.427Z,1268
2017-12-08T11:50:43.970Z,1352
2017-12-08T11:51:54.040Z,1412
2017-12-08T11:53:04.112Z,1452
2017-12-08T11:54:13.659Z,1464
2017-12-08T11:55:23.481Z,1444
2017-12-08T11:56:33.578Z,1388
2017-12-08T11:57:43.733Z,1288
2017-12-08T11:58:53.808Z,1148
2017-12-08T12:00:04.103Z,1020
2017-12-08T12:01:13.891Z,908
2017-12-08T12:02:23.690Z,820
2017-12-08T12:03:33.824Z,748
2017-12-08T12:04:43.884Z,672
2017-12-08T12:05:53.677Z,628
2017-12-08T12:07:03.739Z,616
2017-12-08T12:08:13.821Z,640
2017-12-08T12:09:23.667Z,688
2017-12-08T12:10:33.848Z,684
2017-12-08T12:11:43.672Z,648
2017-12-08T12:12:53.934Z,592
2017-12-08T12:14:04.121Z,552
2017-12-08T12:15:14.227Z,560
2017-12-08T12:16:24.292Z,592
2017-12-08T12:17:34.889Z,656
2017-12-08T12:18:44.425Z,724
2017-12-08T12:19:54.517Z,748
2017-12-08T12:21:04.597Z,720
2017-12-08T12:22:14.386Z,700
2017-12-08T12:23:24.480Z,716
2017-12-08T12:24:34.262Z,696
2017-12-08T12:25:44.328Z,680
2017-12-08T12:26:54.178Z,700
2017-12-08T12:28:04.199Z,772
2017-12-08T12:29:14.347Z,796
2017-12-08T12:30:24.416Z,732
2017-12-08T12:31:34.240Z,644
2017-12-08T12:32:44.358Z,588
2017-12-08T12:33:54.429Z,552
2017-12-08T12:35:04.457Z,556
2017-12-08T12:36:14.257Z,588
2017-12-08T12:37:24.344Z,616
2017-12-08T12:38:34.459Z,632
2017-12-08T12:39:44.536Z,612
2017-12-08T12:40:54.624Z,584
2017-12-08T12:42:04.448Z,572
2017-12-08T12:43:15.188Z,568
2017-12-08T12:44:25.312Z,564
2017-12-08T12:45:35.131Z,572
2017-12-08T12:46:44.932Z,584
2017-12-08T12:47:54.458Z,592
2017-12-08T12:49:04.264Z,584
2017-12-08T12:50:14.398Z,576
2017-12-08T12:51:24.187Z,572
2017-12-08T12:52:34.059Z,576
2017-12-08T12:53:44.122Z,572
2017-12-08T12:54:53.911Z,536
2017-12-08T12:56:03.739Z,500
2017-12-08T12:57:13.865Z,472
2017-12-08T12:58:23.742Z,440
2017-12-08T12:59:34.468Z,424
2017-12-08T13:00:45.396Z,420
2017-12-08T13:01:55.193Z,420
2017-12-08T13:03:05.015Z,412
2017-12-08T13:04:15.143Z,400
2017-12-08T13:05:24.460Z,392
2017-12-08T13:06:34.520Z,392
2017-12-08T13:07:44.587Z,400
2017-12-08T13:08:54.659Z,400
2017-12-08T13:10:04.269Z,404
2017-12-08T13:11:15.443Z,416
2017-12-08T13:12:25.511Z,420
2017-12-08T13:13:36.683Z,420
2017-12-08T13:14:46.514Z,408
2017-12-08T13:15:56.618Z,392
2017-12-08T13:17:06.700Z,372
2017-12-08T13:18:16.793Z,344
2017-12-08T13:19:27.501Z,332
2017-12-08T13:20:37.569Z,336
2017-12-08T13:21:47.701Z,356
2017-12-08T13:22:57.865Z,360
2017-12-08T13:24:07.935Z,356
2017-12-08T13:25:17.726Z,360
2017-12-08T13:26:27.789Z,360
2017-12-08T13:27:37.915Z,344
2017-12-08T13:28:47.456Z,316
2017-12-08T13:29:57.264Z,292
2017-12-08T13:31:07.345Z,272
2017-12-08T13:32:17.167Z,248
2017-12-08T13:33:26.758Z,228
2017-12-08T13:34:37.540Z,216
2017-12-08T13:35:47.609Z,200
2017-12-08T13:36:57.675Z,184
2017-12-08T13:38:07.256Z,176
2017-12-08T13:39:17.065Z,176
2017-12-08T13:40:26.929Z,176
2017-12-08T13:41:36.222Z,168
2017-12-08T13:42:46.043Z,160
2017-12-08T13:43:56.137Z,152
2017-12-08T13:45:06.124Z,148
2017-12-08T13:46:15.933Z,148
2017-12-08T13:47:25.744Z,148
2017-12-08T13:48:35.553Z,152
2017-12-08T13:49:45.621Z,156
2017-12-08T13:50:55.765Z,148
2017-12-08T13:52:05.563Z,144
2017-12-08T13:53:15.375Z,140
2017-12-08T13:54:25.443Z,140
2017-12-08T13:55:35.496Z,144
2017-12-08T13:56:45.350Z,140
2017-12-08T13:57:54.615Z,136
2017-12-08T13:59:04.173Z,132
2017-12-08T14:00:13.999Z,128
2017-12-08T14:01:24.145Z,120
2017-12-08T14:02:33.951Z,112
2017-12-08T14:03:43.767Z,104
2017-12-08T14:04:53.850Z,104
2017-12-08T14:06:03.666Z,104
2017-12-08T14:07:13.723Z,108
2017-12-08T14:08:23.978Z,108
2017-12-08T14:09:33.897Z,104
2017-12-08T14:10:43.983Z,108
2017-12-08T14:11:53.585Z,112
2017-12-08T14:13:03.395Z,112
2017-12-08T14:14:13.546Z,116
2017-12-08T14:15:24.168Z,112
2017-12-08T14:16:34.254Z,108
2017-12-08T14:17:44.616Z,104
2017-12-08T14:18:55.560Z,100
2017-12-08T14:20:05.379Z,96
2017-12-08T14:21:15.614Z,92
2017-12-08T14:22:25.691Z,88
2017-12-08T14:23:35.770Z,84
2017-12-08T14:24:45.851Z,80
2017-12-08T14:25:55.674Z,84
2017-12-08T14:27:05.777Z,88
2017-12-08T14:28:15.854Z,88
2017-12-08T14:29:25.931Z,88
2017-12-08T14:30:36.142Z,88
2017-12-08T14:31:46.211Z,80
2017-12-08T14:32:56.033Z,76
2017-12-08T14:34:06.119Z,68
2017-12-08T14:35:16.177Z,60
2017-12-08T14:36:25.749Z,56
2017-12-08T14:37:36.419Z,52
2017-12-08T14:38:46.512Z,60
2017-12-08T14:39:56.586Z,56
2017-12-08T14:41:06.655Z,52
2017-12-08T14:42:16.730Z,44
2017-12-08T14:43:26.288Z,40
2017-12-08T14:44:37.150Z,36
2017-12-08T14:45:47.299Z,32
2017-12-08T14:46:57.159Z,28
2017-12-08T14:48:06.948Z,24
2017-12-08T14:49:16.812Z,28
2017-12-08T14:50:26.616Z,24
2017-12-08T14:51:36.700Z,28
2017-12-08T14:52:46.801Z,24
2017-12-08T14:53:57.554Z,24
2017-12-08T14:55:07.635Z,24
2017-12-08T14:56:17.705Z,20
2017-12-08T14:57:27.502Z,20
2017-12-08T14:58:37.068Z,20
2017-12-08T14:59:47.154Z,16
2017-12-08T15:00:57.591Z,12
2017-12-08T15:02:07.673Z,16
2017-12-08T15:03:17.495Z,12
2017-12-08T15:04:27.576Z,12
2017-12-08T15:05:37.856Z,12
2017-12-08T15:06:47.936Z,12
2017-12-08T15:07:58.019Z,8
2017-12-08T15:09:08.118Z,8
2017-12-08T15:10:18.214Z,4
2017-12-08T15:11:27.770Z,4
2017-12-08T15:12:37.837Z,8
2017-12-08T15:13:47.654Z,4
2017-12-08T15:14:57.193Z,4
2017-12-08T15:16:07.355Z,4
2017-12-08T15:17:16.629Z,4
2017-12-08T15:18:26.748Z,4
2017-12-08T15:19:36.564Z,0
2017-12-08T15:20:46.630Z,0
2017-12-08T15:21:56.702Z,4
2017-12-08T15:23:06.554Z,4
2017-12-08T15:24:16.676Z,0
2017-12-08T15:25:26.849Z,0
2017-12-08T15:26:36.921Z,0
2017-12-08T15:27:46.994Z,0
2017-12-08T15:28:57.055Z,0
2017-12-08T15:30:06.921Z,0
2017-12-08T15:31:17.028Z,0
2017-12-08T15:32:27.099Z,0
2017-12-08T15:33:37.207Z,0
2017-12-08T15:34:47.267Z,0
2017-12-08T15:35:57.151Z,0
2017-12-08T15:37:07.265Z,0
2017-12-08T15:38:17.384Z,0
2017-12-08T15:39:27.505Z,0
2017-12-08T15:40:37.601Z,0
2017-12-08T15:41:47.736Z,0
2017-12-08T15:42:57.817Z,0
2017-12-08T15:44:07.937Z,0
2017-12-08T15:45:17.784Z,0
2017-12-08T15:46:27.863Z,0
2017-12-08T15:47:37.976Z,0
2017-12-08T15:48:47.796Z,0
2017-12-08T15:49:58.393Z,0
2017-12-08T15:51:09.627Z,0
2017-12-08T15:52:19.424Z,0
2017-12-08T15:53:29.302Z,0
2017-12-08T15:54:38.872Z,0
2017-12-08T15:55:48.686Z,0
2017-12-08T15:56:59.773Z,0
2017-12-08T15:58:09.868Z,0
2017-12-08T15:59:19.985Z,0
2017-12-08T16:00:29.281Z,0
2017-12-08T16:01:39.114Z,0
2017-12-08T16:02:49.203Z,0
2017-12-08T16:03:59.290Z,0
2017-12-08T16:05:09.514Z,0
2017-12-08T16:06:19.381Z,0
2017-12-08T16:07:29.220Z,0
2017-12-08T16:08:39.296Z,0
2017-12-08T16:09:49.778Z,0
2017-12-08T16:10:59.696Z,0
2017-12-08T16:12:09.784Z,0
2017-12-08T16:13:19.841Z,0
2017-12-08T16:14:29.860Z,0
2017-12-08T16:15:39.952Z,0
2017-12-08T16:16:49.818Z,0
2017-12-08T16:17:59.889Z,0
2017-12-08T16:19:09.983Z,0
2017-12-08T16:20:19.819Z,0
2017-12-08T16:21:29.924Z,0
2017-12-08T16:22:40.036Z,0
2017-12-08T16:23:50.147Z,0
2017-12-08T16:25:00.099Z,0
2017-12-08T16:26:09.941Z,0
2017-12-08T16:27:20.041Z,0
2017-12-08T16:28:30.190Z,0
2017-12-08T16:29:40.271Z,0
2017-12-08T16:30:50.938Z,0
2017-12-08T16:32:00.732Z,0
2017-12-08T16:33:10.596Z,0
2017-12-08T16:34:20.459Z,0
2017-12-08T16:35:30.283Z,0
2017-12-08T16:36:40.094Z,0
2017-12-08T16:37:50.118Z,0
2017-12-08T16:39:00.175Z,0
2017-12-08T16:40:09.966Z,0
2017-12-08T16:41:19.757Z,0
2017-12-08T16:42:29.566Z,0
2017-12-08T16:43:39.380Z,0
2017-12-08T16:44:49.424Z,0
2017-12-08T16:45:58.953Z,0
2017-12-08T16:47:09.049Z,0
2017-12-08T16:48:19.220Z,0
2017-12-08T16:49:29.054Z,0
2017-12-08T16:50:38.864Z,0
2017-12-08T16:51:48.752Z,0
2017-12-08T16:52:58.819Z,0
2017-12-08T16:54:08.655Z,0
2017-12-08T16:55:18.186Z,0
2017-12-08T16:56:28.272Z,0
2017-12-08T16:57:38.078Z,0
2017-12-08T16:58:47.907Z,0
2017-12-08T16:59:57.735Z,0
2017-12-08T17:01:07.282Z,0
2017-12-08T17:02:17.069Z,0